Time;durP1;ratioP1;P1;durP2;ratioP2;P2;SDS_P1;SDS_P2;PMS_P1;PMS_P2;Temp;Humidity;BMP_temperature;BMP_pressure;BME280_temperature;BME280_humidity;BME280_pressure;Samples;Min_cycle;Max_cycle;Signal;HPM_P1;HPM_P2
2021/09/29 00:02:00;;;;;;;;;2.75;0.00;;;;;;;;4989991;28;45366;-69
2021/09/29 00:04:25;;;;;;;;;0.00;0.00;;;;;;;;4992397;28;45317;-71
2021/09/29 00:06:50;;;;;;;;;1.00;1.00;;;;;;;;4990117;28;45363;-71
2021/09/29 00:09:15;;;;;;;;;1.00;1.00;;;;;;;;4990066;28;46289;-71
2021/09/29 00:11:41;;;;;;;;;2.00;2.00;;;;;;;;4990148;28;45590;-70
2021/09/29 00:14:06;;;;;;;;;2.25;1.00;;;;;;;;4990195;28;45522;-70
2021/09/29 00:16:31;;;;;;;;;2.00;0.50;;;;;;;;4991145;28;45307;-71
2021/09/29 00:18:56;;;;;;;;;1.00;1.00;;;;;;;;4990585;28;45360;-71
2021/09/29 00:21:22;;;;;;;;;1.75;1.00;;;;;;;;4989857;28;45371;-70
2021/09/29 00:23:48;;;;;;;;;0.25;0.00;;;;;;;;4989542;28;45628;-70
2021/09/29 00:26:13;;;;;;;;;0.75;0.75;;;;;;;;4990051;28;45517;-70
2021/09/29 00:28:38;;;;;;;;;1.00;0.00;;;;;;;;4972696;28;46419;-71
2021/09/29 00:31:15;;;;;;;;;1.00;0.00;;;;;;;;4989168;28;45346;-70
2021/09/29 00:33:46;;;;;;;;;0.00;0.00;;;;;;;;4988495;28;45383;-70
2021/09/29 00:36:11;;;;;;;;;0.75;0.75;;;;;;;;4992803;28;45510;-69
2021/09/29 00:38:36;;;;;;;;;1.25;0.00;;;;;;;;4992419;28;45340;-69
2021/09/29 00:41:01;;;;;;;;;0.00;0.00;;;;;;;;4992575;28;45590;-70
2021/09/29 00:43:27;;;;;;;;;0.75;0.00;;;;;;;;4994898;28;45486;-70
2021/09/29 00:45:52;;;;;;;;;0.75;0.75;;;;;;;;4992142;28;45292;-70
2021/09/29 00:48:17;;;;;;;;;1.00;1.00;;;;;;;;4992422;28;46263;-70
2021/09/29 00:50:42;;;;;;;;;1.00;0.00;;;;;;;;4992287;28;45530;-70
2021/09/29 00:53:08;;;;;;;;;2.00;1.00;;;;;;;;4992675;28;45516;-70
2021/09/29 00:55:33;;;;;;;;;1.00;0.25;;;;;;;;4994105;28;45444;-70
2021/09/29 00:57:58;;;;;;;;;0.00;0.00;;;;;;;;4993100;28;46522;-69
2021/09/29 01:00:25;;;;;;;;;1.00;1.00;;;;;;;;4991980;28;45420;-70
2021/09/29 01:02:50;;;;;;;;;0.25;0.00;;;;;;;;4992619;28;45494;-70
2021/09/29 01:05:16;;;;;;;;;0.00;0.00;;;;;;;;4992585;28;45387;-70
2021/09/29 01:07:57;;;;;;;;;0.00;0.00;;;;;;;;4992807;28;46021;-70
2021/09/29 01:10:36;;;;;;;;;0.50;0.00;;;;;;;;4994305;28;45246;-69
2021/09/29 01:13:06;;;;;;;;;1.00;0.00;;;;;;;;4993285;28;45374;-69
2021/09/29 01:15:34;;;;;;;;;2.75;1.00;;;;;;;;4992262;28;46018;-69
2021/09/29 01:18:02;;;;;;;;;0.50;0.50;;;;;;;;4992206;28;45975;-71
2021/09/29 01:20:34;;;;;;;;;2.00;0.50;;;;;;;;4992050;28;45472;-70
2021/09/29 01:23:04;;;;;;;;;1.25;1.00;;;;;;;;4958213;28;45637;-70
2021/09/29 01:25:50;;;;;;;;;2.25;0.00;;;;;;;;4990612;28;45303;-70
2021/09/29 01:28:19;;;;;;;;;0.00;0.00;;;;;;;;4992629;28;47118;-69
2021/09/29 01:30:45;;;;;;;;;0.75;0.75;;;;;;;;4992049;28;45351;-69
2021/09/29 01:33:11;;;;;;;;;1.00;0.00;;;;;;;;4991960;28;45350;-69
2021/09/29 01:35:36;;;;;;;;;0.00;0.00;;;;;;;;4992151;28;45395;-69
2021/09/29 01:38:02;;;;;;;;;1.00;1.00;;;;;;;;4992159;28;45455;-70
2021/09/29 01:40:27;;;;;;;;;2.00;0.50;;;;;;;;4994194;28;45612;-69
2021/09/29 01:42:52;;;;;;;;;0.00;0.00;;;;;;;;4991840;28;45525;-69
2021/09/29 01:45:17;;;;;;;;;1.00;0.00;;;;;;;;4992017;28;45395;-69
2021/09/29 01:47:42;;;;;;;;;2.00;1.00;;;;;;;;4990369;28;46189;-70
2021/09/29 01:50:09;;;;;;;;;1.00;0.00;;;;;;;;4990569;28;45456;-69
2021/09/29 01:52:36;;;;;;;;;1.00;0.00;;;;;;;;4993275;28;45363;-69
2021/09/29 01:55:01;;;;;;;;;0.50;0.50;;;;;;;;4992910;28;45462;-69
2021/09/29 01:57:28;;;;;;;;;3.50;1.00;;;;;;;;4991287;28;47662;-69
2021/09/29 01:59:54;;;;;;;;;0.00;0.00;;;;;;;;4991597;28;45443;-70
2021/09/29 02:02:19;;;;;;;;;2.75;0.00;;;;;;;;4991910;28;45659;-72
2021/09/29 02:04:45;;;;;;;;;1.50;0.50;;;;;;;;4991954;28;45464;-72
2021/09/29 02:07:10;;;;;;;;;1.50;1.00;;;;;;;;4993708;28;45275;-69
2021/09/29 02:09:36;;;;;;;;;0.50;0.50;;;;;;;;4991576;28;45351;-68
2021/09/29 02:12:01;;;;;;;;;1.00;1.00;;;;;;;;4991455;28;45403;-68
2021/09/29 02:14:26;;;;;;;;;1.00;1.00;;;;;;;;4991610;28;45450;-68
2021/09/29 02:16:52;;;;;;;;;0.00;0.00;;;;;;;;4991552;28;46412;-68
2021/09/29 02:19:18;;;;;;;;;0.75;0.25;;;;;;;;4993652;28;45402;-73
2021/09/29 02:21:43;;;;;;;;;0.00;0.00;;;;;;;;4991505;28;49209;-73
2021/09/29 02:24:09;;;;;;;;;1.00;0.00;;;;;;;;4991724;28;45307;-73
2021/09/29 02:26:35;;;;;;;;;0.75;0.75;;;;;;;;4989588;28;45985;-69
2021/09/29 02:29:00;;;;;;;;;1.00;1.00;;;;;;;;4990172;28;45516;-70
2021/09/29 02:31:26;;;;;;;;;1.00;1.00;;;;;;;;4993895;28;45352;-69
2021/09/29 02:33:51;;;;;;;;;2.75;0.00;;;;;;;;4991398;28;45702;-72
2021/09/29 02:36:16;;;;;;;;;1.00;1.00;;;;;;;;4991142;28;45515;-70
2021/09/29 02:38:43;;;;;;;;;1.00;1.00;;;;;;;;4991194;28;45355;-70
2021/09/29 02:41:09;;;;;;;;;0.75;0.25;;;;;;;;4991119;28;45497;-70
2021/09/29 02:43:34;;;;;;;;;3.25;1.00;;;;;;;;4992364;28;45565;-70
2021/09/29 02:46:02;;;;;;;;;0.50;0.50;;;;;;;;4991939;28;47079;-71
2021/09/29 02:48:27;;;;;;;;;0.00;0.00;;;;;;;;4991104;28;45609;-72
2021/09/29 02:50:52;;;;;;;;;0.00;0.00;;;;;;;;4991064;28;45316;-72
2021/09/29 02:53:17;;;;;;;;;0.25;0.25;;;;;;;;4989844;28;45307;-71
2021/09/29 02:55:42;;;;;;;;;0.00;0.00;;;;;;;;4990826;28;46567;-70
2021/09/29 02:58:09;;;;;;;;;1.00;0.00;;;;;;;;4992563;28;45366;-70
2021/09/29 03:00:34;;;;;;;;;0.75;0.00;;;;;;;;4991089;28;45497;-71
2021/09/29 03:03:00;;;;;;;;;0.00;0.00;;;;;;;;4990785;28;45375;-71
2021/09/29 03:05:25;;;;;;;;;2.25;1.00;;;;;;;;4989769;28;46387;-71
2021/09/29 03:07:50;;;;;;;;;0.00;0.00;;;;;;;;4990626;28;45414;-71
2021/09/29 03:10:15;;;;;;;;;0.00;0.00;;;;;;;;4992132;28;45460;-72
2021/09/29 03:12:41;;;;;;;;;0.00;0.00;;;;;;;;4990740;28;45407;-71
2021/09/29 03:15:06;;;;;;;;;0.25;0.25;;;;;;;;4990488;28;46127;-71
2021/09/29 03:17:31;;;;;;;;;1.00;1.00;;;;;;;;4990774;28;45545;-71
2021/09/29 03:19:56;;;;;;;;;1.00;1.00;;;;;;;;4990971;28;45383;-71
2021/09/29 03:22:22;;;;;;;;;0.00;0.00;;;;;;;;4992509;28;45475;-71
2021/09/29 03:24:47;;;;;;;;;0.00;0.00;;;;;;;;4990158;28;45993;-71
2021/09/29 03:27:12;;;;;;;;;0.25;0.25;;;;;;;;4990100;28;45410;-71
2021/09/29 03:29:37;;;;;;;;;1.00;1.00;;;;;;;;4990589;28;45430;-71
2021/09/29 03:32:03;;;;;;;;;0.00;0.00;;;;;;;;4990750;28;45491;-71
2021/09/29 03:34:28;;;;;;;;;0.00;0.00;;;;;;;;4992129;28;45964;-71
2021/09/29 03:36:53;;;;;;;;;0.50;0.50;;;;;;;;4990925;28;45383;-71
2021/09/29 03:39:19;;;;;;;;;0.00;0.00;;;;;;;;4990232;28;45510;-71
2021/09/29 03:41:44;;;;;;;;;1.00;1.00;;;;;;;;4990281;28;45474;-71
2021/09/29 03:44:09;;;;;;;;;1.00;1.00;;;;;;;;4988601;28;45477;-71
2021/09/29 03:46:35;;;;;;;;;0.00;0.00;;;;;;;;4990898;28;45458;-71
2021/09/29 03:49:02;;;;;;;;;1.00;0.25;;;;;;;;4989724;28;45243;-71
2021/09/29 03:51:27;;;;;;;;;2.75;2.00;;;;;;;;4990268;28;45361;-72
2021/09/29 03:53:52;;;;;;;;;0.50;0.50;;;;;;;;4989096;28;46176;-71
2021/09/29 03:56:17;;;;;;;;;0.00;0.00;;;;;;;;4990067;28;45498;-71
2021/09/29 03:58:43;;;;;;;;;0.50;0.00;;;;;;;;4990068;28;45356;-72
2021/09/29 04:01:08;;;;;;;;;0.00;0.00;;;;;;;;4991966;28;45311;-72
2021/09/29 04:03:33;;;;;;;;;0.00;0.00;;;;;;;;4989828;28;47111;-71
2021/09/29 04:05:58;;;;;;;;;1.50;1.00;;;;;;;;4989799;28;45635;-72
2021/09/29 04:08:23;;;;;;;;;2.25;0.50;;;;;;;;4989660;28;45512;-71
2021/09/29 04:10:49;;;;;;;;;0.00;0.00;;;;;;;;4992468;28;45495;-71
2021/09/29 04:13:14;;;;;;;;;1.00;1.00;;;;;;;;4994814;28;46897;-71
2021/09/29 04:15:39;;;;;;;;;1.25;1.00;;;;;;;;4992600;28;45246;-71
2021/09/29 04:18:05;;;;;;;;;0.75;0.75;;;;;;;;4992712;28;45581;-71
2021/09/29 04:20:30;;;;;;;;;1.25;0.00;;;;;;;;4992183;28;45399;-72
2021/09/29 04:22:55;;;;;;;;;1.00;0.00;;;;;;;;4991117;28;46505;-71
2021/09/29 04:25:21;;;;;;;;;0.00;0.00;;;;;;;;4994402;28;45355;-71
2021/09/29 04:27:47;;;;;;;;;1.00;0.00;;;;;;;;4991344;28;45652;-71
2021/09/29 04:30:14;;;;;;;;;1.75;0.00;;;;;;;;4992163;28;45545;-71
2021/09/29 04:32:39;;;;;;;;;3.00;0.25;;;;;;;;4991526;28;46390;-72
2021/09/29 04:35:05;;;;;;;;;0.75;0.75;;;;;;;;4974600;28;45527;-72
2021/09/29 04:37:30;;;;;;;;;0.25;0.25;;;;;;;;4993372;28;45360;-72
2021/09/29 04:39:55;;;;;;;;;1.00;1.00;;;;;;;;4992159;28;45422;-71
2021/09/29 04:42:21;;;;;;;;;1.00;0.50;;;;;;;;4991794;28;46328;-71
2021/09/29 04:44:46;;;;;;;;;1.50;1.00;;;;;;;;4992030;28;45331;-70
2021/09/29 04:47:12;;;;;;;;;1.00;1.00;;;;;;;;4992038;28;45398;-70
2021/09/29 04:49:37;;;;;;;;;1.00;0.00;;;;;;;;4992588;28;45339;-72
2021/09/29 04:52:02;;;;;;;;;1.00;0.00;;;;;;;;4992636;28;45579;-71
2021/09/29 04:54:27;;;;;;;;;0.50;0.00;;;;;;;;4991249;28;45528;-73
2021/09/29 04:56:53;;;;;;;;;3.50;0.00;;;;;;;;4991736;28;45319;-71
2021/09/29 04:59:18;;;;;;;;;1.00;1.00;;;;;;;;4991631;28;45414;-70
2021/09/29 05:01:43;;;;;;;;;0.25;0.25;;;;;;;;4992305;28;45449;-73
2021/09/29 05:04:08;;;;;;;;;1.00;1.00;;;;;;;;4991917;28;45561;-73
2021/09/29 05:06:34;;;;;;;;;0.25;0.25;;;;;;;;4989566;28;45471;-70
2021/09/29 05:08:59;;;;;;;;;2.00;1.00;;;;;;;;4991365;28;45399;-70
2021/09/29 05:11:28;;;;;;;;;0.00;0.00;;;;;;;;4991888;28;45430;-70
2021/09/29 05:13:55;;;;;;;;;0.75;0.00;;;;;;;;4991646;28;45534;-72
2021/09/29 05:16:20;;;;;;;;;1.00;1.00;;;;;;;;4993611;28;45394;-71
2021/09/29 05:18:45;;;;;;;;;0.50;0.00;;;;;;;;4991354;28;45260;-70
2021/09/29 05:21:10;;;;;;;;;0.00;0.00;;;;;;;;4990106;28;46243;-72
2021/09/29 05:23:35;;;;;;;;;0.00;0.00;;;;;;;;4990860;28;45373;-71
2021/09/29 05:26:01;;;;;;;;;0.00;0.00;;;;;;;;4973654;28;45366;-72
2021/09/29 05:28:28;;;;;;;;;0.25;0.25;;;;;;;;4993602;28;45298;-70
2021/09/29 05:30:53;;;;;;;;;0.00;0.00;;;;;;;;4990184;28;47088;-70
2021/09/29 05:33:18;;;;;;;;;0.00;0.00;;;;;;;;4990582;28;45288;-73
2021/09/29 05:35:43;;;;;;;;;0.00;0.00;;;;;;;;4990587;28;45600;-70
2021/09/29 05:38:09;;;;;;;;;1.00;1.00;;;;;;;;4991091;28;45182;-71
2021/09/29 05:40:34;;;;;;;;;0.00;0.00;;;;;;;;4991800;28;45639;-73
2021/09/29 05:42:59;;;;;;;;;0.00;0.00;;;;;;;;4990649;28;45264;-73
2021/09/29 05:45:24;;;;;;;;;1.00;0.00;;;;;;;;4989736;28;45314;-74
2021/09/29 05:47:49;;;;;;;;;0.25;0.00;;;;;;;;4990837;28;45314;-74
2021/09/29 05:50:15;;;;;;;;;0.00;0.00;;;;;;;;4990362;28;46125;-70
2021/09/29 05:52:40;;;;;;;;;0.00;0.00;;;;;;;;4992572;27;45406;-69
2021/09/29 05:55:05;;;;;;;;;0.25;0.25;;;;;;;;4992805;28;45382;-69
2021/09/29 05:57:31;;;;;;;;;0.00;0.00;;;;;;;;4993725;28;45410;-70
2021/09/29 05:59:56;;;;;;;;;4.00;4.00;;;;;;;;4993111;28;46508;-70
2021/09/29 06:02:21;;;;;;;;;0.00;0.00;;;;;;;;4993832;28;45387;-68
2021/09/29 06:04:47;;;;;;;;;0.00;0.00;;;;;;;;4991691;28;45787;-70
2021/09/29 06:07:15;;;;;;;;;0.00;0.00;;;;;;;;4993418;28;45268;-69
2021/09/29 06:09:40;;;;;;;;;0.00;0.00;;;;;;;;4990992;28;46353;-70
2021/09/29 06:12:09;;;;;;;;;1.75;0.75;;;;;;;;4990513;28;45381;-71
2021/09/29 06:14:35;;;;;;;;;0.00;0.00;;;;;;;;4992254;28;45462;-72
2021/09/29 06:17:11;;;;;;;;;2.00;1.00;;;;;;;;4992515;28;45391;-72
2021/09/29 06:19:36;;;;;;;;;1.50;0.00;;;;;;;;4993313;28;46224;-71
2021/09/29 06:22:02;;;;;;;;;0.00;0.00;;;;;;;;4989876;28;45348;-74
2021/09/29 06:24:27;;;;;;;;;0.00;0.00;;;;;;;;4989429;28;45432;-73
2021/09/29 06:26:53;;;;;;;;;0.00;0.00;;;;;;;;4991141;28;45529;-73
2021/09/29 06:29:19;;;;;;;;;0.00;0.00;;;;;;;;4991785;28;46186;-73
2021/09/29 06:31:44;;;;;;;;;0.00;0.00;;;;;;;;4971448;28;45414;-72
2021/09/29 06:34:09;;;;;;;;;0.00;0.00;;;;;;;;4992241;28;45364;-72
2021/09/29 06:36:34;;;;;;;;;0.50;0.50;;;;;;;;4990309;28;47610;-73
2021/09/29 06:39:00;;;;;;;;;0.00;0.00;;;;;;;;4990730;28;46051;-73
2021/09/29 06:41:25;;;;;;;;;0.00;0.00;;;;;;;;4991151;28;45277;-73
2021/09/29 06:43:50;;;;;;;;;4.25;4.25;;;;;;;;4990772;28;45599;-75
2021/09/29 06:46:15;;;;;;;;;3.00;1.00;;;;;;;;4991791;28;45524;-73
2021/09/29 06:48:42;;;;;;;;;0.00;0.00;;;;;;;;4989724;28;47147;-71
2021/09/29 06:51:07;;;;;;;;;0.00;0.00;;;;;;;;4989671;28;45494;-72
2021/09/29 06:53:32;;;;;;;;;1.00;0.00;;;;;;;;4989743;28;45438;-74
2021/09/29 06:56:05;;;;;;;;;0.00;0.00;;;;;;;;4990731;28;45471;-72
2021/09/29 06:58:30;;;;;;;;;3.00;2.00;;;;;;;;4988658;28;45168;-72
2021/09/29 07:00:55;;;;;;;;;0.75;0.00;;;;;;;;4988566;28;45326;-72
2021/09/29 07:03:22;;;;;;;;;0.00;0.00;;;;;;;;4988789;28;45283;-72
2021/09/29 07:05:47;;;;;;;;;0.75;0.75;;;;;;;;4989987;28;45493;-72
2021/09/29 07:08:12;;;;;;;;;2.00;0.00;;;;;;;;4989322;28;46394;-73
2021/09/29 07:10:38;;;;;;;;;0.00;0.00;;;;;;;;4972188;28;45451;-72
2021/09/29 07:13:03;;;;;;;;;0.00;0.00;;;;;;;;4990843;28;45291;-72
2021/09/29 07:15:28;;;;;;;;;0.50;0.50;;;;;;;;4989026;28;45272;-71
2021/09/29 07:17:57;;;;;;;;;0.00;0.00;;;;;;;;4989324;28;45761;-72
2021/09/29 07:20:23;;;;;;;;;0.00;0.00;;;;;;;;4989796;28;45362;-73
2021/09/29 07:22:48;;;;;;;;;0.00;0.00;;;;;;;;4988880;28;45361;-72
2021/09/29 07:25:14;;;;;;;;;1.00;0.00;;;;;;;;4973693;28;45363;-72
2021/09/29 07:27:39;;;;;;;;;1.00;0.00;;;;;;;;4989011;28;47063;-71
2021/09/29 07:30:05;;;;;;;;;0.00;0.00;;;;;;;;4989433;28;45260;-72
2021/09/29 07:32:30;;;;;;;;;0.50;0.50;;;;;;;;4989107;28;45521;-73
2021/09/29 07:34:55;;;;;;;;;1.00;0.00;;;;;;;;4989243;28;45348;-73
2021/09/29 07:37:20;;;;;;;;;2.50;2.50;;;;;;;;4973498;28;48186;-72
2021/09/29 07:39:46;;;;;;;;;2.25;2.00;;;;;;;;4988247;28;45209;-72
2021/09/29 07:42:12;;;;;;;;;0.00;0.00;;;;;;;;4988039;28;45469;-73
2021/09/29 07:44:37;;;;;;;;;0.00;0.00;;;;;;;;4988398;28;45444;-71
2021/09/29 07:47:02;;;;;;;;;1.75;1.00;;;;;;;;4971007;28;48313;-73
2021/09/29 07:49:28;;;;;;;;;2.00;1.00;;;;;;;;4990729;28;45451;-73
2021/09/29 07:51:53;;;;;;;;;1.00;0.00;;;;;;;;4987449;28;45439;-73
2021/09/29 07:54:19;;;;;;;;;0.00;0.00;;;;;;;;4988492;28;45467;-72
2021/09/29 07:56:44;;;;;;;;;1.00;1.00;;;;;;;;4988249;28;46236;-70
2021/09/29 07:59:09;;;;;;;;;1.50;1.00;;;;;;;;4988666;28;45614;-73
2021/09/29 08:01:34;;;;;;;;;0.00;0.00;;;;;;;;4990349;28;45592;-72
2021/09/29 08:04:00;;;;;;;;;0.00;0.00;;;;;;;;4989725;28;45461;-72
2021/09/29 08:06:28;;;;;;;;;1.00;1.00;;;;;;;;4987760;28;45283;-71
2021/09/29 08:08:53;;;;;;;;;0.25;0.25;;;;;;;;4988102;28;45428;-72
2021/09/29 08:11:18;;;;;;;;;0.50;0.50;;;;;;;;4988605;28;45379;-72
2021/09/29 08:13:44;;;;;;;;;1.00;1.00;;;;;;;;4988303;28;45337;-73
2021/09/29 08:16:09;;;;;;;;;3.25;1.25;;;;;;;;4990484;28;45228;-71
2021/09/29 08:18:34;;;;;;;;;2.50;2.50;;;;;;;;4986967;28;45411;-72
2021/09/29 08:21:02;;;;;;;;;0.75;0.75;;;;;;;;4986835;28;45219;-72
2021/09/29 08:23:32;;;;;;;;;1.00;1.00;;;;;;;;4988425;28;45537;-73
2021/09/29 08:28:42;;;;;;;;;0.00;0.00;;;;;;;;4985996;28;45328;-72
2021/09/29 08:31:31;;;;;;;;;1.00;0.25;;;;;;;;4990561;28;45532;-72
2021/09/29 08:42:21;;;;;;;;;1.00;1.00;;;;;;;;4988311;28;45296;-72
2021/09/29 08:45:00;;;;;;;;;0.50;0.00;;;;;;;;4987810;28;45221;-73
2021/09/29 08:47:38;;;;;;;;;0.00;0.00;;;;;;;;4987667;28;46303;-72
2021/09/29 09:16:40;;;;;;;;;0.00;0.00;;;;;;;;5030373;28;45394;-71
2021/09/29 09:19:08;;;;;;;;;2.75;1.00;;;;;;;;5028552;28;46276;-73
2021/09/29 09:21:35;;;;;;;;;3.75;0.75;;;;;;;;5028211;28;45820;-72
2021/09/29 09:24:00;;;;;;;;;0.00;0.00;;;;;;;;5028324;28;45414;-72
2021/09/29 09:26:27;;;;;;;;;0.00;0.00;;;;;;;;5028868;28;45563;-72
2021/09/29 09:29:08;;;;;;;;;0.50;0.25;;;;;;;;5032353;28;46896;-72
2021/09/29 09:31:34;;;;;;;;;1.00;1.00;;;;;;;;5029994;28;45249;-72
2021/09/29 09:34:02;;;;;;;;;1.75;0.50;;;;;;;;5028556;28;45543;-73
2021/09/29 09:36:27;;;;;;;;;0.00;0.00;;;;;;;;5032376;28;45486;-71
2021/09/29 09:38:52;;;;;;;;;0.75;0.75;;;;;;;;5027977;28;45495;-72
2021/09/29 09:41:17;;;;;;;;;1.25;1.25;;;;;;;;5029225;28;45674;-72
2021/09/29 09:43:51;;;;;;;;;1.00;0.25;;;;;;;;4989753;28;45304;-72
2021/09/29 09:46:19;;;;;;;;;0.00;0.00;;;;;;;;4992034;28;45291;-72
2021/09/29 09:48:44;;;;;;;;;3.50;2.00;;;;;;;;4990234;28;46370;-73
2021/09/29 09:51:15;;;;;;;;;1.00;1.00;;;;;;;;4990386;28;45569;-72
2021/09/29 09:53:51;;;;;;;;;0.25;0.25;;;;;;;;4990989;28;45612;-73
2021/09/29 09:56:17;;;;;;;;;0.00;0.00;;;;;;;;4988937;28;45489;-72
2021/09/29 09:58:46;;;;;;;;;2.50;0.75;;;;;;;;4991031;28;45516;-72
2021/09/29 10:01:15;;;;;;;;;3.75;2.75;;;;;;;;4990432;28;45394;-72
2021/09/29 10:03:41;;;;;;;;;0.00;0.00;;;;;;;;4990453;28;45408;-71
2021/09/29 10:06:06;;;;;;;;;0.00;0.00;;;;;;;;4989487;28;45250;-73
2021/09/29 10:08:31;;;;;;;;;3.50;1.75;;;;;;;;4989827;28;45759;-72
2021/09/29 10:11:06;;;;;;;;;0.00;0.00;;;;;;;;4974360;28;45468;-72
2021/09/29 10:27:51;;;;;;;;;0.50;0.50;;;;;;;;4952634;28;45462;-71
2021/09/29 10:30:23;;;;;;;;;0.50;0.00;;;;;;;;4952546;28;45454;-72
2021/09/29 10:32:51;;;;;;;;;0.75;0.75;;;;;;;;4952516;28;45449;-71
2021/09/29 10:43:04;;;;;;;;;1.00;1.00;;;;;;;;4951776;28;45414;-71
2021/09/29 11:31:35;;;;;;;;;1.67;0.00;;;;;;;;4993298;28;45368;-71
2021/09/29 11:39:30;;;;;;;;;0.33;0.33;;;;;;;;4962516;28;45573;-72
2021/09/29 12:09:06;;;;;;;;;0.00;0.00;;;;;;;;4988375;28;45473;-72
2021/09/29 12:11:42;;;;;;;;;1.00;1.00;;;;;;;;4987060;28;45510;-73
2021/09/29 12:14:14;;;;;;;;;0.75;0.75;;;;;;;;4972976;28;45217;-72
2021/09/29 12:16:40;;;;;;;;;1.00;0.00;;;;;;;;4988822;28;47232;-71
2021/09/29 12:19:05;;;;;;;;;0.00;0.00;;;;;;;;4989989;28;45477;-72
2021/09/29 12:21:40;;;;;;;;;0.33;0.33;;;;;;;;4988242;28;45465;-72
2021/09/29 12:24:08;;;;;;;;;0.00;0.00;;;;;;;;4988646;28;45333;-71
2021/09/29 12:26:46;;;;;;;;;0.00;0.00;;;;;;;;4988194;28;45567;-71
2021/09/29 12:29:54;;;;;;;;;1.00;1.00;;;;;;;;4989022;28;45488;-71
2021/09/29 12:32:43;;;;;;;;;2.00;1.00;;;;;;;;4973998;28;45388;-72
2021/09/29 12:35:07;;;;;;;;;2.00;1.00;;;;;;;;4974011;28;45526;-70
2021/09/29 12:37:32;;;;;;;;;2.00;0.00;;;;;;;;4989514;28;46312;-72
2021/09/29 12:39:58;;;;;;;;;0.00;0.00;;;;;;;;4992085;28;45491;-72
2021/09/29 12:42:30;;;;;;;;;2.00;0.00;;;;;;;;4991559;28;45446;-72
2021/09/29 12:44:55;;;;;;;;;1.00;0.00;;;;;;;;4991377;28;45551;-72
2021/09/29 12:49:46;;;;;;;;;0.00;0.00;;;;;;;;4990826;28;45323;-71
2021/09/29 12:52:26;;;;;;;;;0.00;0.00;;;;;;;;4991370;28;45456;-73
2021/09/29 12:54:51;;;;;;;;;1.00;0.00;;;;;;;;4989746;28;45388;-73
2021/09/29 12:57:17;;;;;;;;;0.00;0.00;;;;;;;;4990828;28;46040;-72
2021/09/29 12:59:42;;;;;;;;;0.00;0.00;;;;;;;;4990880;28;45506;-72
2021/09/29 13:02:07;;;;;;;;;2.00;2.00;;;;;;;;4990917;28;45390;-72
2021/09/29 13:04:33;;;;;;;;;0.00;0.00;;;;;;;;4991899;28;45410;-72
2021/09/29 13:06:58;;;;;;;;;0.00;0.00;;;;;;;;4991724;28;47174;-72
2021/09/29 13:09:23;;;;;;;;;1.00;0.00;;;;;;;;4990643;28;45315;-72
2021/09/29 13:11:48;;;;;;;;;0.00;0.00;;;;;;;;4990939;28;45343;-72
2021/09/29 13:14:13;;;;;;;;;1.00;0.00;;;;;;;;4990845;28;45362;-73
2021/09/29 13:16:39;;;;;;;;;0.00;0.00;;;;;;;;4991509;28;46154;-72
2021/09/29 13:19:16;;;;;;;;;0.00;0.00;;;;;;;;4991740;28;45468;-73
2021/09/29 13:21:52;;;;;;;;;2.33;2.00;;;;;;;;4990322;28;45280;-72
2021/09/29 13:27:20;;;;;;;;;1.00;1.00;;;;;;;;4990435;28;45307;-71
2021/09/29 13:37:57;;;;;;;;;1.75;0.00;;;;;;;;4990570;28;45718;-72
2021/09/29 13:40:22;;;;;;;;;1.25;1.00;;;;;;;;4992303;28;45366;-72
2021/09/29 13:42:47;;;;;;;;;0.00;0.00;;;;;;;;4990381;28;47282;-71
2021/09/29 13:45:13;;;;;;;;;0.67;0.00;;;;;;;;4990554;28;45511;-73
2021/09/29 13:47:38;;;;;;;;;1.00;1.00;;;;;;;;4989800;28;45528;-72
2021/09/29 13:50:04;;;;;;;;;1.00;0.00;;;;;;;;4989794;28;45326;-72
2021/09/29 13:52:30;;;;;;;;;0.00;0.00;;;;;;;;4992164;28;45448;-71
2021/09/29 13:54:59;;;;;;;;;0.00;0.00;;;;;;;;4990328;28;45315;-72
2021/09/29 13:58:11;;;;;;;;;1.33;1.00;;;;;;;;4989889;28;46251;-73
2021/09/29 14:30:38;;;;;;;;;0.00;0.00;;;;;;;;4919249;28;45842;-71
2021/09/29 14:33:06;;;;;;;;;4.00;0.00;;;;;;;;4919424;28;45467;-71
2021/09/29 14:35:31;;;;;;;;;2.00;0.00;;;;;;;;4919274;28;45527;-72
2021/09/29 14:37:57;;;;;;;;;1.00;0.00;;;;;;;;4972306;28;45422;-71
2021/09/29 14:40:24;;;;;;;;;0.00;0.00;;;;;;;;4992116;28;45962;-72
2021/09/29 14:42:49;;;;;;;;;0.00;0.00;;;;;;;;4989791;28;45538;-72
2021/09/29 14:45:17;;;;;;;;;0.00;0.00;;;;;;;;4989279;28;45349;-72
2021/09/29 14:47:42;;;;;;;;;1.00;0.00;;;;;;;;4987854;28;45486;-72
2021/09/29 14:50:08;;;;;;;;;0.00;0.00;;;;;;;;4988101;28;45399;-72
2021/09/29 14:52:33;;;;;;;;;0.00;0.00;;;;;;;;4989867;28;45911;-71
2021/09/29 14:54:58;;;;;;;;;0.00;0.00;;;;;;;;4990591;28;45460;-73
2021/09/29 14:57:24;;;;;;;;;0.00;0.00;;;;;;;;4989912;28;45448;-72
2021/09/29 14:59:49;;;;;;;;;0.00;0.00;;;;;;;;4989208;28;47137;-73
2021/09/29 15:02:15;;;;;;;;;0.00;0.00;;;;;;;;4989860;28;45389;-71
2021/09/29 15:04:40;;;;;;;;;1.00;1.00;;;;;;;;4990287;28;45256;-71
2021/09/29 15:07:06;;;;;;;;;0.00;0.00;;;;;;;;4990909;28;45506;-72
2021/09/29 15:09:31;;;;;;;;;0.33;0.33;;;;;;;;4989349;28;45436;-71
2021/09/29 15:11:57;;;;;;;;;0.00;0.00;;;;;;;;4988389;28;45450;-72
2021/09/29 15:16:58;;;;;;;;;0.00;0.00;;;;;;;;4989341;28;45267;-73
2021/09/29 15:29:56;;;;;;;;;2.33;0.33;;;;;;;;4987226;28;45780;-71
2021/09/29 15:48:56;;;;;;;;;0.00;0.00;;;;;;;;4891539;28;45613;-72
2021/09/29 15:51:28;;;;;;;;;0.67;0.67;;;;;;;;4891438;28;46592;-72
2021/09/29 15:59:12;;;;;;;;;0.00;0.00;;;;;;;;4891634;28;45482;-73
2021/09/29 16:32:55;;;;;;;;;1.00;0.00;;;;;;;;5032791;28;45727;-73
2021/09/29 16:34:49;;;;;;;;;0.00;0.00;;;;;;;;5035796;28;45545;-74
2021/09/29 16:37:14;;;;;;;;;0.00;0.00;;;;;;;;5033700;28;45996;-73
2021/09/29 16:39:40;;;;;;;;;0.67;0.67;;;;;;;;5033018;28;45523;-72
2021/09/29 16:42:05;;;;;;;;;1.67;1.00;;;;;;;;5032422;28;45439;-74
2021/09/29 16:44:31;;;;;;;;;1.00;1.00;;;;;;;;5033035;28;45442;-71
2021/09/29 16:46:57;;;;;;;;;1.00;0.00;;;;;;;;5033238;28;45572;-75
2021/09/29 16:49:28;;;;;;;;;0.67;0.33;;;;;;;;5033566;28;45551;-71
2021/09/29 16:52:09;;;;;;;;;0.00;0.00;;;;;;;;5032925;28;46908;-72
2021/09/29 16:54:34;;;;;;;;;4.25;3.00;;;;;;;;5032711;28;45521;-73
2021/09/29 16:56:59;;;;;;;;;2.00;1.00;;;;;;;;5032590;28;45363;-71
2021/09/29 16:59:43;;;;;;;;;0.00;0.00;;;;;;;;5016911;28;45540;-71
2021/09/29 17:02:12;;;;;;;;;1.00;1.00;;;;;;;;5018646;28;46037;-72
2021/09/29 17:04:37;;;;;;;;;3.50;1.00;;;;;;;;5033506;28;45294;-73
2021/09/29 17:07:02;;;;;;;;;0.00;0.00;;;;;;;;4996501;28;45366;-71
2021/09/29 17:09:27;;;;;;;;;0.50;0.50;;;;;;;;4991759;28;45551;-72
2021/09/29 17:11:53;;;;;;;;;0.75;0.00;;;;;;;;4990955;28;47292;-71
2021/09/29 17:14:18;;;;;;;;;1.00;1.00;;;;;;;;4991560;28;45497;-71
2021/09/29 17:16:43;;;;;;;;;2.00;0.75;;;;;;;;4991496;28;45316;-72
2021/09/29 17:19:08;;;;;;;;;1.50;1.50;;;;;;;;4993372;28;45595;-72
2021/09/29 17:21:36;;;;;;;;;1.50;0.00;;;;;;;;4991607;28;46459;-72
2021/09/29 17:24:01;;;;;;;;;0.25;0.25;;;;;;;;4989625;28;45528;-73
2021/09/29 17:26:26;;;;;;;;;0.25;0.25;;;;;;;;4989598;28;45545;-74
2021/09/29 17:28:58;;;;;;;;;3.25;1.75;;;;;;;;4991362;28;45275;-73
2021/09/29 17:31:30;;;;;;;;;2.00;1.00;;;;;;;;4993328;28;46936;-72
2021/09/29 17:34:11;;;;;;;;;5.00;3.50;;;;;;;;4989887;28;45423;-73
2021/09/29 17:52:47;;;;;;;;;2.25;0.00;;;;;;;;4989310;28;45586;-72
2021/09/29 17:55:12;;;;;;;;;0.75;0.25;;;;;;;;4990529;28;45473;-72
2021/09/29 17:57:39;;;;;;;;;1.50;1.00;;;;;;;;4991081;28;45368;-71
2021/09/29 18:00:06;;;;;;;;;1.00;1.00;;;;;;;;4990219;28;45648;-72
2021/09/29 18:02:40;;;;;;;;;1.00;1.00;;;;;;;;4990901;28;46473;-73
2021/09/29 18:05:11;;;;;;;;;1.00;1.00;;;;;;;;4974667;28;45463;-73
2021/09/29 18:07:38;;;;;;;;;0.00;0.00;;;;;;;;4991475;28;45402;-71
2021/09/29 18:10:05;;;;;;;;;2.50;1.25;;;;;;;;4991851;28;45454;-71
2021/09/29 18:12:30;;;;;;;;;0.25;0.25;;;;;;;;4990778;27;45545;-73
2021/09/29 18:14:55;;;;;;;;;1.00;1.00;;;;;;;;4990852;28;45277;-72
2021/09/29 18:17:21;;;;;;;;;1.25;0.00;;;;;;;;4991644;28;45237;-72
2021/09/29 18:19:51;;;;;;;;;2.75;2.25;;;;;;;;4991550;28;45222;-72
2021/09/29 18:22:16;;;;;;;;;1.75;0.50;;;;;;;;4990816;28;45472;-71
2021/09/29 18:24:42;;;;;;;;;0.25;0.25;;;;;;;;4990873;28;45510;-73
2021/09/29 18:27:07;;;;;;;;;3.25;2.00;;;;;;;;4989835;28;45778;-73
2021/09/29 18:29:32;;;;;;;;;2.25;1.50;;;;;;;;4990226;28;45260;-73
2021/09/29 18:31:58;;;;;;;;;1.25;1.25;;;;;;;;4990656;28;46325;-75
2021/09/29 18:34:26;;;;;;;;;2.25;1.00;;;;;;;;4992296;28;45443;-73
2021/09/29 18:36:51;;;;;;;;;1.00;1.00;;;;;;;;4990163;28;45479;-72
2021/09/29 18:39:21;;;;;;;;;2.00;2.00;;;;;;;;4990751;28;45246;-72
2021/09/29 18:41:46;;;;;;;;;4.25;3.25;;;;;;;;4988802;28;46106;-72
2021/09/29 18:44:14;;;;;;;;;4.00;1.25;;;;;;;;4989111;28;45623;-73
2021/09/29 18:46:40;;;;;;;;;2.25;1.50;;;;;;;;4991852;28;45363;-73
2021/09/29 18:49:16;;;;;;;;;5.00;1.50;;;;;;;;5088864;27;45389;-73
2021/09/29 18:51:44;;;;;;;;;2.00;2.00;;;;;;;;5075676;27;45192;-72
2021/09/29 19:08:35;;;;;;;;;0.00;0.00;;;;;;;;5083789;27;45356;-72
2021/09/29 19:10:28;;;;;;;;;8.50;2.00;;;;;;;;5082005;27;45409;-71
2021/09/29 19:12:53;;;;;;;;;3.25;2.00;;;;;;;;5073833;27;45363;-72
2021/09/29 19:15:18;;;;;;;;;1.75;1.50;;;;;;;;5073913;27;45249;-73
2021/09/29 19:17:44;;;;;;;;;8.00;7.00;;;;;;;;5072206;27;45479;-75
2021/09/29 19:20:10;;;;;;;;;2.00;2.00;;;;;;;;5068811;27;45643;-73